Disclaimer

Please do not use the information listed here in-flight or in-navigation, as they are not provided to us by the airports but are provided by volunteers, so they might be outdated.

Search


Regions


Airport information page

Radio informations:
Tower (TWR) - 118.0 MHz
METRO - 372.725 MHz
Ground (GND) - 250.1 MHz
MOHALAB APP - 128.3 MHz

Airport informations:
Latitude: 29° 20' 48.27" N
Longitude: 047° 31' 14.71" E
Elevation: 472 feet - 144 meters
Operating hours: 24 hour operations
Operating agency: Military
Timezone: UTC+3
Fuel: Jet fuel avaiable but type is unknown.

Runway information:
12R/30L - 9805 x 146 feet< - >2989 x 45 meters
12L/30R - 9805 x 132 feet< - >2989 x 40 meters

Recent METARs:
OKAS 152256Z 00000KT 6000 BR BKN005 OVC009 13/11 A3005 RMK AO2A SLP175 WND DATA ESTMD T01290107 PA +353
OKAS 152330Z 00000KT 6000 BR SCT005 OVC007 13/10 A3004 RMK AO2A CIG 005V007 SLP171 WND DATA ESTMD PA +363
OKAS 152356Z 00000KT 6000 BR SCT005 OVC007 13/10 A3003 RMK AO2A SLP168 WND DATA ESTMD T01330100 10134 20122 55011 PA +372

Airport on the map: